Time;durP1;ratioP1;P1;durP2;ratioP2;P2;SDS_P1;SDS_P2;PMS_P1;PMS_P2;Temp;Humidity;BMP_temperature;BMP_pressure;BME280_temperature;BME280_humidity;BME280_pressure;Samples;Min_cycle;Max_cycle;Signal;HPM_P1;HPM_P2
2022/08/27 00:00:20;;;;;;;5.83;4.57;;;19.20;99.90;;;;;;5009863;28;20529;-50
2022/08/27 00:02:48;;;;;;;8.10;5.97;;;19.10;99.90;;;;;;5011507;28;20435;-50
2022/08/27 00:05:17;;;;;;;7.50;6.60;;;19.00;99.90;;;;;;5010954;28;20530;-49
2022/08/27 00:07:45;;;;;;;6.20;5.60;;;19.10;99.90;;;;;;5011083;28;20223;-51
2022/08/27 00:10:16;;;;;;;6.20;5.60;;;18.90;99.90;;;;;;5010427;28;20451;-50
2022/08/27 00:12:45;;;;;;;6.70;6.10;;;18.90;99.90;;;;;;5010941;28;20976;-50
2022/08/27 00:15:14;;;;;;;6.70;6.00;;;18.80;99.90;;;;;;5011505;28;20509;-50
2022/08/27 00:17:41;;;;;;;5.90;5.40;;;18.70;99.90;;;;;;5010679;28;20495;-51
2022/08/27 00:20:09;;;;;;;6.90;6.20;;;18.80;99.90;;;;;;5010131;28;20537;-51
2022/08/27 00:22:36;;;;;;;5.60;5.07;;;18.70;99.90;;;;;;5010797;28;20497;-50
2022/08/27 00:25:04;;;;;;;4.97;4.53;;;18.80;99.90;;;;;;5010859;28;20447;-50
2022/08/27 00:27:31;;;;;;;5.90;5.40;;;18.80;99.90;;;;;;5010112;28;20507;-50
2022/08/27 00:29:59;;;;;;;7.07;5.47;;;18.50;99.90;;;;;;5009963;28;20435;-50
2022/08/27 00:32:27;;;;;;;6.20;5.60;;;18.50;99.90;;;;;;5009897;28;20451;-51
2022/08/27 00:34:54;;;;;;;6.13;5.53;;;18.50;99.90;;;;;;5010897;28;20952;-51
2022/08/27 00:37:21;;;;;;;6.15;5.55;;;18.50;99.90;;;;;;5010646;28;20557;-50
2022/08/27 00:39:48;;;;;;;6.27;5.67;;;18.80;99.90;;;;;;5009899;28;20211;-52
2022/08/27 00:42:15;;;;;;;5.97;5.43;;;19.00;99.90;;;;;;5010639;28;20446;-50
2022/08/27 00:44:42;;;;;;;6.40;5.18;;;18.70;99.90;;;;;;5010506;28;20819;-50
2022/08/27 00:47:15;;;;;;;5.67;5.13;;;18.90;99.90;;;;;;5010441;28;20471;-50
2022/08/27 00:49:45;;;;;;;7.13;5.60;;;19.00;99.90;;;;;;5009977;28;20447;-50
2022/08/27 00:52:20;;;;;;;8.40;5.80;;;19.10;99.90;;;;;;5009296;28;20948;-48
2022/08/27 00:54:48;;;;;;;6.30;5.70;;;18.90;99.90;;;;;;5010149;28;20475;-50
2022/08/27 00:57:17;;;;;;;5.73;5.13;;;19.00;99.90;;;;;;5010190;28;20533;-50
2022/08/27 00:59:44;;;;;;;6.37;4.83;;;19.00;99.90;;;;;;5009214;28;20501;-50
2022/08/27 01:02:19;;;;;;;7.27;5.30;;;18.70;99.90;;;;;;5010170;28;20443;-51
2022/08/27 01:04:51;;;;;;;6.33;5.73;;;18.60;99.90;;;;;;5010364;28;20447;-50
2022/08/27 01:07:18;;;;;;;9.03;5.80;;;18.60;99.90;;;;;;5010076;28;20533;-51
2022/08/27 01:09:48;;;;;;;6.47;5.67;;;18.50;99.90;;;;;;5009589;28;20998;-49
2022/08/27 01:12:16;;;;;;;6.10;5.57;;;18.50;99.90;;;;;;5010051;28;20435;-50
2022/08/27 01:14:44;;;;;;;6.50;4.90;;;18.50;99.90;;;;;;5010156;28;20474;-50
2022/08/27 01:17:14;;;;;;;6.60;6.00;;;18.40;99.90;;;;;;5009882;28;20470;-50
2022/08/27 01:19:47;;;;;;;5.30;4.80;;;18.60;99.90;;;;;;5009400;28;20875;-50
2022/08/27 01:22:25;;;;;;;5.60;4.90;;;18.70;99.90;;;;;;5010317;28;20446;-50
2022/08/27 01:24:57;;;;;;;5.23;4.73;;;18.60;99.90;;;;;;5010047;28;20446;-50
2022/08/27 01:27:27;;;;;;;6.90;6.10;;;18.60;99.90;;;;;;5009588;28;20506;-50
2022/08/27 01:29:55;;;;;;;5.80;5.30;;;18.90;99.90;;;;;;5009152;28;20438;-50
2022/08/27 01:32:24;;;;;;;6.43;5.70;;;18.90;99.90;;;;;;5010092;28;20434;-50
2022/08/27 01:34:51;;;;;;;5.80;5.30;;;18.80;99.90;;;;;;5009664;28;20466;-50
2022/08/27 01:37:20;;;;;;;5.93;4.90;;;18.60;99.90;;;;;;5010031;28;20455;-51
2022/08/27 01:39:47;;;;;;;5.47;5.07;;;18.50;99.90;;;;;;5009432;28;20460;-50
2022/08/27 01:42:19;;;;;;;6.60;5.77;;;18.60;99.90;;;;;;5010403;28;20447;-51
2022/08/27 01:44:50;;;;;;;5.80;5.20;;;18.60;99.90;;;;;;5015015;28;20658;-50
2022/08/27 01:47:19;;;;;;;6.47;5.37;;;18.60;99.90;;;;;;5014431;28;20475;-52
2022/08/27 01:49:46;;;;;;;6.10;5.57;;;18.60;99.90;;;;;;5013940;28;20517;-51
2022/08/27 01:52:15;;;;;;;7.60;6.90;;;18.60;99.90;;;;;;5013931;28;20537;-50
2022/08/27 01:54:42;;;;;;;6.20;5.60;;;18.40;99.90;;;;;;5013633;28;20474;-51
2022/08/27 01:57:09;;;;;;;6.57;6.07;;;18.10;99.90;;;;;;5013651;28;20466;-50
2022/08/27 01:59:38;;;;;;;5.73;5.23;;;18.40;99.90;;;;;;5012382;28;20482;-49
2022/08/27 02:02:06;;;;;;;7.85;4.97;;;18.50;99.90;;;;;;5013321;28;20446;-50
2022/08/27 02:04:33;;;;;;;5.00;4.50;;;18.00;99.90;;;;;;5013542;28;20258;-49
2022/08/27 02:07:00;;;;;;;5.20;4.70;;;18.20;99.90;;;;;;5013292;28;20463;-50
2022/08/27 02:09:27;;;;;;;6.33;5.57;;;18.30;99.90;;;;;;5012518;28;20463;-51
2022/08/27 02:11:54;;;;;;;5.40;4.90;;;17.90;99.90;;;;;;5013303;28;20451;-50
2022/08/27 02:14:21;;;;;;;5.77;5.27;;;18.10;99.90;;;;;;5013479;28;21253;-50
2022/08/27 02:16:50;;;;;;;6.93;5.53;;;18.00;99.90;;;;;;5013035;28;20450;-51
2022/08/27 02:19:17;;;;;;;8.52;5.65;;;18.10;99.90;;;;;;5012435;28;20536;-50
2022/08/27 02:21:44;;;;;;;5.67;5.17;;;18.00;99.90;;;;;;5013011;28;20251;-50
2022/08/27 02:24:12;;;;;;;5.33;4.83;;;17.90;99.90;;;;;;5013016;28;20497;-50
2022/08/27 02:26:39;;;;;;;6.20;5.60;;;17.80;99.90;;;;;;5012460;28;20508;-51
2022/08/27 02:29:06;;;;;;;7.63;5.53;;;18.00;99.90;;;;;;5012320;28;20794;-50
2022/08/27 02:31:33;;;;;;;5.80;5.30;;;18.10;99.90;;;;;;5012808;28;20489;-51
2022/08/27 02:34:03;;;;;;;7.33;6.07;;;17.90;99.90;;;;;;5012770;28;20494;-51
2022/08/27 02:36:30;;;;;;;5.37;4.87;;;18.20;99.90;;;;;;5012694;28;20501;-50
2022/08/27 02:38:57;;;;;;;7.27;5.80;;;18.40;99.90;;;;;;5012121;28;21022;-51
2022/08/27 02:41:24;;;;;;;6.53;5.60;;;18.00;99.90;;;;;;5012780;28;20808;-51
2022/08/27 02:43:51;;;;;;;5.82;5.32;;;18.00;99.90;;;;;;5012792;28;20475;-51
2022/08/27 02:46:18;;;;;;;6.13;4.90;;;18.30;99.90;;;;;;5012736;28;20259;-52
2022/08/27 02:48:45;;;;;;;5.20;4.70;;;18.40;99.90;;;;;;5012053;28;20522;-51
2022/08/27 02:51:13;;;;;;;6.20;5.60;;;18.40;99.90;;;;;;5012465;28;20450;-51
2022/08/27 02:53:42;;;;;;;6.30;5.70;;;18.50;99.90;;;;;;5011529;28;20533;-50
2022/08/27 02:56:10;;;;;;;10.83;6.30;;;18.10;99.90;;;;;;5012280;28;20454;-51
2022/08/27 02:58:37;;;;;;;7.70;5.47;;;18.40;99.90;;;;;;5012262;28;20546;-51
2022/08/27 03:01:04;;;;;;;6.20;5.60;;;18.40;99.90;;;;;;5012036;28;20928;-49
2022/08/27 03:03:32;;;;;;;6.40;5.80;;;18.50;99.90;;;;;;5012284;28;21034;-50
2022/08/27 03:05:59;;;;;;;11.43;6.10;;;18.50;99.90;;;;;;5012243;28;20446;-52
2022/08/27 03:08:28;;;;;;;6.03;5.53;;;18.60;99.90;;;;;;5012466;28;20506;-50
2022/08/27 03:10:56;;;;;;;7.00;5.20;;;18.60;99.90;;;;;;5011634;28;20494;-52
2022/08/27 03:13:24;;;;;;;6.60;5.27;;;18.20;99.90;;;;;;5012011;28;20844;-50
2022/08/27 03:15:51;;;;;;;6.80;6.07;;;18.30;99.90;;;;;;5012412;28;20843;-50
2022/08/27 03:18:17;;;;;;;7.22;5.80;;;18.60;99.90;;;;;;5011623;28;20474;-50
2022/08/27 03:20:47;;;;;;;6.57;5.90;;;18.50;99.90;;;;;;5011376;28;20200;-51
2022/08/27 03:23:14;;;;;;;5.90;5.40;;;18.40;99.90;;;;;;5012097;28;20459;-51
2022/08/27 03:25:45;;;;;;;6.68;5.38;;;18.50;99.90;;;;;;5012186;28;20533;-51
2022/08/27 03:28:15;;;;;;;5.57;5.00;;;18.50;99.90;;;;;;5011775;28;20240;-51
2022/08/27 03:30:44;;;;;;;6.37;5.80;;;18.70;99.90;;;;;;5011088;28;20467;-50
2022/08/27 03:33:12;;;;;;;8.73;5.27;;;18.60;99.90;;;;;;5011807;28;20510;-50
2022/08/27 03:35:39;;;;;;;6.17;5.57;;;18.60;99.90;;;;;;5011642;28;20482;-51
2022/08/27 03:38:06;;;;;;;6.70;5.60;;;18.20;99.90;;;;;;5011696;28;20826;-50
2022/08/27 03:40:33;;;;;;;9.50;5.93;;;18.40;99.90;;;;;;5010906;28;21007;-50
2022/08/27 03:43:02;;;;;;;6.50;5.90;;;18.40;99.90;;;;;;5011647;28;20447;-51
2022/08/27 03:45:29;;;;;;;7.20;6.50;;;18.30;99.90;;;;;;5011647;28;20896;-50
2022/08/27 03:47:56;;;;;;;7.17;6.30;;;18.30;99.90;;;;;;5011561;28;20530;-51
2022/08/27 03:50:23;;;;;;;6.77;6.13;;;18.40;99.90;;;;;;5010748;28;20427;-50
2022/08/27 03:52:50;;;;;;;7.23;6.40;;;18.40;99.90;;;;;;5009775;28;20448;-51
2022/08/27 03:55:17;;;;;;;7.20;6.50;;;18.40;99.90;;;;;;5011319;28;20532;-50
2022/08/27 03:57:44;;;;;;;6.70;5.73;;;18.30;99.90;;;;;;5011210;28;20447;-51
2022/08/27 04:00:14;;;;;;;7.63;6.40;;;18.10;99.90;;;;;;5010040;28;20501;-50
2022/08/27 04:02:42;;;;;;;6.67;5.97;;;17.90;99.90;;;;;;5011237;28;20468;-51
2022/08/27 04:05:11;;;;;;;6.88;6.20;;;18.00;99.90;;;;;;5011060;28;20473;-51
2022/08/27 04:07:38;;;;;;;7.57;5.20;;;18.10;99.90;;;;;;5010512;28;20816;-51
2022/08/27 04:10:08;;;;;;;5.77;5.17;;;18.10;99.90;;;;;;5010541;28;20451;-50
2022/08/27 04:12:35;;;;;;;6.90;6.20;;;18.20;99.90;;;;;;5010986;28;20471;-51
2022/08/27 04:15:03;;;;;;;6.97;6.27;;;18.30;99.90;;;;;;5011117;28;20474;-52
2022/08/27 04:17:32;;;;;;;7.17;6.53;;;18.10;99.90;;;;;;5012321;28;20475;-51
2022/08/27 04:19:59;;;;;;;6.90;6.30;;;17.80;99.90;;;;;;5010253;28;20463;-50
2022/08/27 04:22:27;;;;;;;6.90;5.63;;;18.20;99.90;;;;;;5010812;28;20439;-51
2022/08/27 04:24:54;;;;;;;5.33;4.83;;;18.40;99.90;;;;;;5010969;28;20493;-52
2022/08/27 04:27:23;;;;;;;5.00;4.50;;;18.10;99.90;;;;;;5010419;28;20886;-51
2022/08/27 04:29:54;;;;;;;5.10;4.50;;;17.90;99.90;;;;;;5010160;28;20431;-50
2022/08/27 04:32:22;;;;;;;4.60;4.20;;;18.10;99.90;;;;;;5010683;28;20451;-50
2022/08/27 04:34:53;;;;;;;4.95;4.55;;;18.10;99.90;;;;;;5010760;28;20481;-50
2022/08/27 04:37:20;;;;;;;4.43;4.00;;;18.00;99.90;;;;;;5011771;28;20224;-50
2022/08/27 04:39:48;;;;;;;5.07;4.40;;;18.20;99.90;;;;;;5010848;28;20196;-50
2022/08/27 04:42:17;;;;;;;4.63;4.23;;;18.20;99.90;;;;;;5010701;28;20447;-50
2022/08/27 04:44:45;;;;;;;5.43;4.93;;;18.10;99.90;;;;;;5010738;28;20548;-50
2022/08/27 04:47:14;;;;;;;7.13;4.60;;;18.20;99.90;;;;;;5010260;28;20811;-50
2022/08/27 04:49:42;;;;;;;4.70;4.30;;;18.30;99.90;;;;;;5009811;28;20450;-50
2022/08/27 04:52:10;;;;;;;5.50;5.00;;;18.40;99.90;;;;;;5008816;28;20459;-50
2022/08/27 04:54:37;;;;;;;4.80;4.40;;;18.50;99.90;;;;;;5010347;28;20479;-51
2022/08/27 04:57:06;;;;;;;5.10;4.70;;;18.40;99.90;;;;;;5010354;28;20461;-49
2022/08/27 04:59:34;;;;;;;6.03;5.50;;;18.20;99.90;;;;;;5009029;28;20929;-50
2022/08/27 05:02:04;;;;;;;4.77;4.37;;;18.10;99.90;;;;;;5010186;28;20455;-50
2022/08/27 05:04:34;;;;;;;5.60;5.10;;;18.10;99.90;;;;;;5010137;28;20439;-50
2022/08/27 05:07:01;;;;;;;5.63;5.13;;;18.10;99.90;;;;;;5010107;28;20489;-50
2022/08/27 05:09:29;;;;;;;5.27;4.77;;;18.10;99.90;;;;;;5009670;28;20206;-50
2022/08/27 05:11:57;;;;;;;5.27;4.77;;;18.00;99.90;;;;;;5009988;28;20438;-50
2022/08/27 05:14:28;;;;;;;6.50;5.60;;;18.10;99.90;;;;;;5010082;28;20509;-50
2022/08/27 05:16:56;;;;;;;8.27;7.23;;;18.00;99.90;;;;;;5009814;28;20509;-50
2022/08/27 05:19:23;;;;;;;7.20;6.22;;;17.80;99.90;;;;;;5009037;28;20790;-49
2022/08/27 05:21:52;;;;;;;6.90;6.17;;;17.90;99.90;;;;;;5009993;28;20688;-50
2022/08/27 05:24:19;;;;;;;6.63;6.03;;;17.90;99.90;;;;;;5009964;28;21042;-50
2022/08/27 05:26:48;;;;;;;6.40;5.80;;;17.80;99.90;;;;;;5009582;28;20459;-50
2022/08/27 05:29:16;;;;;;;6.55;5.82;;;18.00;99.90;;;;;;5009380;28;20462;-50
2022/08/27 05:31:43;;;;;;;8.13;7.00;;;18.00;99.90;;;;;;5009902;28;20427;-50
2022/08/27 05:34:10;;;;;;;8.00;6.40;;;18.00;99.90;;;;;;5009938;28;20976;-50
2022/08/27 05:36:39;;;;;;;8.57;5.90;;;18.00;99.90;;;;;;5010214;28;20436;-49
2022/08/27 05:39:07;;;;;;;6.87;6.13;;;18.00;99.90;;;;;;5009358;28;20510;-49
2022/08/27 05:41:34;;;;;;;5.90;5.40;;;17.80;99.90;;;;;;5009839;28;20909;-49
2022/08/27 05:44:06;;;;;;;8.40;6.67;;;17.80;99.90;;;;;;5009760;28;20434;-51
2022/08/27 05:46:35;;;;;;;5.10;4.70;;;18.10;99.90;;;;;;5009793;28;20975;-49
2022/08/27 05:49:02;;;;;;;7.20;6.50;;;18.00;99.90;;;;;;5009080;28;20515;-49
2022/08/27 05:51:31;;;;;;;7.47;6.77;;;17.80;99.90;;;;;;5009854;28;20846;-51
2022/08/27 05:54:01;;;;;;;6.23;5.63;;;18.10;99.90;;;;;;5008638;28;20942;-50
2022/08/27 05:56:30;;;;;;;7.17;6.53;;;18.40;99.90;;;;;;5009504;28;20483;-50
2022/08/27 06:01:46;;;;;;;6.57;5.87;;;18.60;99.90;;;;;;5009711;28;20489;-51
2022/08/27 06:04:14;;;;;;;6.50;5.03;;;18.40;99.90;;;;;;5009736;28;20443;-50
2022/08/27 06:06:43;;;;;;;8.97;6.80;;;18.10;99.90;;;;;;5009307;28;20826;-50
2022/08/27 06:09:13;;;;;;;13.03;7.43;;;18.30;99.90;;;;;;5009070;28;20497;-50
2022/08/27 06:11:40;;;;;;;6.83;5.80;;;18.40;99.90;;;;;;5009580;28;20940;-51
2022/08/27 06:14:08;;;;;;;6.70;6.10;;;18.60;99.90;;;;;;5009693;28;20943;-50
2022/08/27 06:16:37;;;;;;;7.30;6.53;;;18.40;99.90;;;;;;5009482;28;20474;-51
2022/08/27 06:19:07;;;;;;;8.27;7.10;;;18.50;99.90;;;;;;5008845;28;20794;-50
2022/08/27 06:21:34;;;;;;;6.87;6.27;;;18.60;99.90;;;;;;5009608;28;20999;-50
2022/08/27 06:24:02;;;;;;;6.20;5.70;;;18.60;99.90;;;;;;5001417;28;20834;-52
2022/08/27 06:26:29;;;;;;;6.77;6.07;;;18.60;99.90;;;;;;4989535;28;20527;-51
2022/08/27 06:28:56;;;;;;;6.07;5.50;;;18.40;99.90;;;;;;4989237;28;20476;-51
2022/08/27 06:31:25;;;;;;;7.07;6.47;;;18.60;99.90;;;;;;4991834;28;20875;-50
2022/08/27 06:33:53;;;;;;;6.10;5.07;;;18.80;99.90;;;;;;4993233;28;20498;-53
2022/08/27 06:36:24;;;;;;;7.63;6.83;;;18.90;99.90;;;;;;4999469;28;20475;-50
2022/08/27 06:38:51;;;;;;;5.83;5.33;;;19.00;99.90;;;;;;5011397;28;20471;-51
2022/08/27 06:41:21;;;;;;;6.60;6.00;;;19.10;99.90;;;;;;5003083;28;20777;-52
2022/08/27 06:43:48;;;;;;;6.03;5.53;;;19.10;99.90;;;;;;5012047;28;20793;-51
2022/08/27 06:46:18;;;;;;;5.50;5.00;;;19.10;99.90;;;;;;4993219;28;20510;-50
2022/08/27 06:48:46;;;;;;;9.98;6.22;;;19.20;99.90;;;;;;4992623;28;20479;-50
2022/08/27 06:51:16;;;;;;;6.40;5.70;;;19.20;99.90;;;;;;4993300;28;20676;-51
2022/08/27 06:53:46;;;;;;;6.23;5.63;;;19.20;99.90;;;;;;5011110;28;20443;-50
2022/08/27 06:56:15;;;;;;;8.83;6.57;;;19.20;99.90;;;;;;5012240;28;20570;-51
2022/08/27 06:58:43;;;;;;;6.73;5.53;;;19.20;99.90;;;;;;5011758;28;20478;-50
2022/08/27 07:01:14;;;;;;;6.00;5.50;;;19.20;99.90;;;;;;5012172;28;20517;-50
2022/08/27 07:03:42;;;;;;;6.43;5.90;;;19.00;99.90;;;;;;5012489;28;20443;-51
2022/08/27 07:06:11;;;;;;;8.03;5.63;;;19.00;99.90;;;;;;5008890;28;20446;-51
2022/08/27 07:08:38;;;;;;;8.63;5.67;;;19.00;99.90;;;;;;4992253;28;20526;-50
2022/08/27 07:11:07;;;;;;;6.03;5.40;;;18.90;99.90;;;;;;4998049;28;20456;-51
2022/08/27 07:13:34;;;;;;;6.53;5.93;;;19.00;99.90;;;;;;4992438;28;20464;-51
2022/08/27 07:16:05;;;;;;;6.03;5.43;;;19.20;99.90;;;;;;4992851;28;20608;-50
2022/08/27 07:18:33;;;;;;;7.73;6.00;;;19.00;99.90;;;;;;4993716;28;20220;-52
2022/08/27 07:21:02;;;;;;;5.80;5.20;;;19.00;99.90;;;;;;4992129;28;20922;-50
2022/08/27 07:23:30;;;;;;;10.63;5.87;;;19.00;99.90;;;;;;4992566;28;20449;-52
2022/08/27 07:25:57;;;;;;;6.30;5.67;;;19.20;99.90;;;;;;4992027;28;20744;-51
2022/08/27 07:28:26;;;;;;;7.07;6.20;;;19.10;99.90;;;;;;4992323;28;20472;-50
2022/08/27 07:30:53;;;;;;;10.50;9.50;;;18.90;99.90;;;;;;4991890;28;20435;-51
2022/08/27 07:33:20;;;;;;;13.37;10.67;;;18.90;99.90;;;;;;4991900;28;20438;-50
2022/08/27 07:35:48;;;;;;;10.87;6.63;;;18.90;99.90;;;;;;4991599;28;20485;-53
2022/08/27 07:38:15;;;;;;;7.30;6.20;;;19.00;99.90;;;;;;4992017;28;20833;-50
2022/08/27 07:40:42;;;;;;;7.23;6.53;;;19.10;99.90;;;;;;4991445;28;20455;-53
2022/08/27 07:45:56;;;;;;;6.10;5.50;;;18.70;99.90;;;;;;5006002;28;20431;-50
2022/08/27 07:48:24;;;;;;;8.90;7.10;;;18.50;99.90;;;;;;4991862;28;20476;-51
2022/08/27 07:50:51;;;;;;;7.50;6.00;;;18.70;99.90;;;;;;4991228;28;20436;-50
2022/08/27 07:53:19;;;;;;;6.55;5.95;;;18.90;99.90;;;;;;4990415;28;20812;-52
2022/08/27 07:55:46;;;;;;;6.10;5.53;;;18.90;99.90;;;;;;4991643;28;20234;-50
2022/08/27 07:58:14;;;;;;;14.63;6.83;;;18.90;99.90;;;;;;4991624;28;20479;-51
2022/08/27 08:00:42;;;;;;;11.67;7.17;;;18.80;99.90;;;;;;4991257;28;20620;-51
2022/08/27 08:03:11;;;;;;;5.93;5.43;;;18.90;99.90;;;;;;4991795;28;20791;-52
2022/08/27 08:05:42;;;;;;;7.33;6.63;;;19.00;99.90;;;;;;4991618;28;20461;-50
2022/08/27 08:08:10;;;;;;;6.97;6.37;;;18.80;99.90;;;;;;4991031;28;21066;-51
2022/08/27 08:10:38;;;;;;;7.27;6.57;;;18.90;99.90;;;;;;4990953;28;20444;-51
2022/08/27 08:13:05;;;;;;;6.30;5.50;;;18.90;99.90;;;;;;4991474;28;20444;-51
2022/08/27 08:15:32;;;;;;;6.50;5.77;;;19.10;99.90;;;;;;4991184;28;20476;-50
2022/08/27 08:17:59;;;;;;;5.87;5.27;;;19.10;99.90;;;;;;4990556;28;20480;-51
2022/08/27 08:20:28;;;;;;;8.57;6.73;;;19.20;99.90;;;;;;4990659;28;20862;-52
2022/08/27 08:22:55;;;;;;;7.80;6.77;;;19.00;99.90;;;;;;4990902;28;20444;-51
2022/08/27 08:25:22;;;;;;;8.20;6.03;;;19.10;99.90;;;;;;4991161;28;20463;-51
2022/08/27 08:27:49;;;;;;;7.93;6.50;;;19.40;99.90;;;;;;4990741;28;20463;-50
2022/08/27 08:30:16;;;;;;;6.97;5.50;;;19.20;99.90;;;;;;4990377;28;20437;-50
2022/08/27 08:32:43;;;;;;;6.17;5.57;;;19.10;99.90;;;;;;4991057;28;20483;-51
2022/08/27 08:35:11;;;;;;;7.70;6.50;;;19.20;99.90;;;;;;4991095;28;20478;-51
2022/08/27 08:37:41;;;;;;;7.60;6.40;;;19.20;99.90;;;;;;4990906;28;20889;-51
2022/08/27 08:40:10;;;;;;;7.00;6.30;;;19.50;99.90;;;;;;4990334;28;20528;-50
2022/08/27 08:42:43;;;;;;;8.30;6.18;;;19.60;99.90;;;;;;4990954;28;20737;-51
2022/08/27 08:45:12;;;;;;;7.50;6.17;;;19.80;99.90;;;;;;4990995;28;20197;-50
2022/08/27 08:47:44;;;;;;;7.97;6.93;;;19.80;99.90;;;;;;4991213;28;20476;-50
2022/08/27 08:50:18;;;;;;;8.20;7.40;;;19.70;99.90;;;;;;4990241;28;20447;-51
2022/08/27 08:53:00;;;;;;;7.87;7.07;;;19.60;99.90;;;;;;4988961;28;20489;-50
2022/08/27 08:55:37;;;;;;;8.53;7.73;;;19.90;99.90;;;;;;4990676;28;20477;-51
2022/08/27 08:58:14;;;;;;;8.10;7.40;;;19.90;99.90;;;;;;4986320;28;20460;-51
2022/08/27 09:00:44;;;;;;;8.63;7.70;;;19.90;99.90;;;;;;4989971;28;20452;-51
2022/08/27 09:03:13;;;;;;;9.43;7.07;;;20.10;99.90;;;;;;4990470;28;20440;-51
2022/08/27 09:05:45;;;;;;;10.17;7.50;;;20.20;99.90;;;;;;4990347;28;20440;-51
2022/08/27 09:08:18;;;;;;;9.93;7.70;;;20.30;99.90;;;;;;5007016;28;20487;-50
2022/08/27 09:10:52;;;;;;;8.43;7.10;;;20.40;99.90;;;;;;5009442;28;20561;-50
2022/08/27 09:13:24;;;;;;;9.20;7.70;;;20.20;99.90;;;;;;4992308;28;20443;-50
2022/08/27 09:15:56;;;;;;;7.07;6.47;;;20.30;99.90;;;;;;4989782;28;20464;-50
2022/08/27 09:18:23;;;;;;;7.93;7.13;;;20.60;99.90;;;;;;4990328;28;20484;-51
2022/08/27 09:20:55;;;;;;;7.60;6.90;;;20.80;99.90;;;;;;4989771;28;20450;-51
2022/08/27 09:23:31;;;;;;;8.90;7.20;;;20.60;99.90;;;;;;5001220;28;20294;-51
2022/08/27 09:25:57;;;;;;;12.00;7.80;;;20.80;99.90;;;;;;5009516;28;20199;-51
2022/08/27 09:31:14;;;;;;;8.07;7.30;;;20.80;99.90;;;;;;5005411;28;20843;-51
2022/08/27 09:33:41;;;;;;;8.90;8.20;;;20.60;99.90;;;;;;4990370;28;20281;-51
2022/08/27 09:36:11;;;;;;;7.50;6.80;;;20.60;99.90;;;;;;4990093;28;20552;-51
2022/08/27 09:38:42;;;;;;;8.77;6.37;;;20.60;99.90;;;;;;4989942;28;20522;-50
2022/08/27 09:41:20;;;;;;;8.07;7.27;;;20.80;99.90;;;;;;4990171;28;20506;-50
2022/08/27 09:43:57;;;;;;;7.87;7.07;;;21.00;99.90;;;;;;4990185;28;20494;-51
2022/08/27 09:46:26;;;;;;;10.88;7.18;;;21.30;99.90;;;;;;4990349;28;20502;-50
2022/08/27 09:48:53;;;;;;;8.07;6.30;;;21.50;99.90;;;;;;4989515;28;20709;-50
2022/08/27 09:51:22;;;;;;;7.57;6.13;;;21.70;99.90;;;;;;4990193;28;20193;-53
2022/08/27 09:53:53;;;;;;;6.67;6.03;;;21.80;99.90;;;;;;4989287;28;20539;-51
2022/08/27 09:56:28;;;;;;;7.00;6.40;;;21.60;99.90;;;;;;4990040;28;20483;-50
2022/08/27 09:59:03;;;;;;;7.43;6.73;;;21.30;99.90;;;;;;4988908;28;20980;-51
2022/08/27 10:01:32;;;;;;;8.60;6.57;;;21.30;99.90;;;;;;4990072;28;20438;-52
2022/08/27 10:04:09;;;;;;;6.73;6.03;;;21.50;99.90;;;;;;4990300;28;20201;-52
2022/08/27 10:06:37;;;;;;;6.80;6.10;;;21.50;99.90;;;;;;4993842;28;20451;-51
2022/08/27 10:09:13;;;;;;;9.80;6.80;;;21.70;99.90;;;;;;4997115;28;20467;-51
2022/08/27 10:11:48;;;;;;;12.53;7.73;;;21.90;99.90;;;;;;5013568;28;20578;-51
2022/08/27 10:14:23;;;;;;;5.73;5.23;;;21.90;99.90;;;;;;4995450;28;20455;-51
2022/08/27 10:17:11;;;;;;;5.67;5.07;;;22.30;99.90;;;;;;4993354;28;20521;-52
2022/08/27 10:19:57;;;;;;;5.43;4.70;;;22.20;99.90;;;;;;4994677;28;20452;-50
2022/08/27 10:22:36;;;;;;;5.73;5.23;;;22.20;99.90;;;;;;4993505;28;20522;-52
2022/08/27 10:25:17;;;;;;;4.37;3.97;;;22.40;99.90;;;;;;4993439;28;20444;-51
2022/08/27 10:27:53;;;;;;;5.70;4.40;;;22.40;99.90;;;;;;4992792;28;20478;-51
2022/08/27 10:30:24;;;;;;;4.10;3.70;;;22.40;99.90;;;;;;4992970;28;20525;-50
2022/08/27 10:33:00;;;;;;;5.10;3.53;;;22.50;99.90;;;;;;4993428;28;20451;-50
2022/08/27 10:35:32;;;;;;;3.93;3.37;;;22.60;99.90;;;;;;4992622;28;21203;-50
2022/08/27 10:38:12;;;;;;;3.93;3.53;;;22.80;99.90;;;;;;4992707;28;20452;-51
2022/08/27 10:40:46;;;;;;;5.63;3.40;;;22.80;99.90;;;;;;4992494;28;20432;-50
2022/08/27 10:43:34;;;;;;;3.97;3.40;;;23.10;99.90;;;;;;4993108;28;20833;-50
2022/08/27 10:46:16;;;;;;;4.50;3.57;;;23.20;99.90;;;;;;4990748;28;20440;-51
2022/08/27 10:48:51;;;;;;;4.80;3.30;;;23.20;99.90;;;;;;4992785;28;20566;-50
2022/08/27 10:51:24;;;;;;;5.40;3.93;;;23.40;99.90;;;;;;4992994;28;20431;-50
2022/08/27 10:54:00;;;;;;;3.70;3.40;;;23.40;99.90;;;;;;4991499;28;20510;-51
2022/08/27 10:56:33;;;;;;;4.30;3.90;;;23.40;99.90;;;;;;5004671;28;21217;-50
2022/08/27 10:59:13;;;;;;;4.17;3.77;;;23.40;99.90;;;;;;5011624;28;20463;-51
2022/08/27 11:01:47;;;;;;;3.80;3.50;;;23.20;99.90;;;;;;5012353;28;20447;-51
2022/08/27 11:04:18;;;;;;;4.70;4.00;;;23.20;99.90;;;;;;5012518;28;20948;-51
2022/08/27 11:06:52;;;;;;;5.80;3.20;;;23.30;99.90;;;;;;5011038;28;20558;-51
2022/08/27 11:09:23;;;;;;;3.60;3.30;;;23.30;99.90;;;;;;5011505;28;20443;-52
2022/08/27 11:11:56;;;;;;;4.37;4.07;;;23.30;99.90;;;;;;5010703;28;20443;-51
2022/08/27 11:14:30;;;;;;;5.40;3.60;;;23.10;99.90;;;;;;5011176;28;20438;-51
2022/08/27 11:17:04;;;;;;;4.83;3.93;;;23.20;99.90;;;;;;5010899;28;20477;-50
2022/08/27 11:19:43;;;;;;;7.40;4.60;;;23.30;99.90;;;;;;5011115;28;20447;-51
2022/08/27 11:22:16;;;;;;;4.60;4.20;;;23.30;99.90;;;;;;5011778;28;20791;-50
2022/08/27 11:24:53;;;;;;;5.40;3.93;;;23.30;99.90;;;;;;5012107;28;20447;-50
2022/08/27 11:27:25;;;;;;;5.63;3.70;;;23.20;99.90;;;;;;5011119;28;20470;-51
2022/08/27 11:29:59;;;;;;;6.43;4.40;;;23.10;99.90;;;;;;5011093;28;20462;-51
2022/08/27 11:32:32;;;;;;;3.20;2.90;;;23.10;99.90;;;;;;5011840;28;21008;-50
2022/08/27 11:35:03;;;;;;;4.20;3.80;;;23.00;99.90;;;;;;5011840;28;20451;-51
2022/08/27 11:37:46;;;;;;;6.10;3.27;;;23.00;99.90;;;;;;5010889;28;20478;-51
2022/08/27 11:40:37;;;;;;;6.80;3.63;;;23.00;99.90;;;;;;5011112;28;20455;-51
2022/08/27 11:43:07;;;;;;;7.17;4.50;;;23.20;99.90;;;;;;5011525;28;20936;-50
2022/08/27 11:45:37;;;;;;;3.77;3.47;;;23.30;99.90;;;;;;5011611;28;20937;-50
2022/08/27 11:48:17;;;;;;;6.73;4.07;;;23.40;99.90;;;;;;5010759;28;20490;-50
2022/08/27 11:50:55;;;;;;;3.67;3.35;;;23.30;99.90;;;;;;5010890;28;20441;-51
2022/08/27 11:53:27;;;;;;;5.00;4.13;;;23.20;99.90;;;;;;5011345;28;20563;-51
2022/08/27 11:55:54;;;;;;;6.28;4.32;;;23.20;99.90;;;;;;5011539;28;20517;-51
2022/08/27 11:58:30;;;;;;;3.70;3.30;;;23.30;99.90;;;;;;5011596;28;20356;-52
2022/08/27 12:00:57;;;;;;;9.30;4.07;;;23.00;99.90;;;;;;5010726;28;20466;-51
2022/08/27 12:03:31;;;;;;;5.83;3.80;;;23.10;99.90;;;;;;5010368;28;20451;-52
2022/08/27 12:06:26;;;;;;;5.17;4.43;;;23.30;99.90;;;;;;5011063;28;20867;-51
2022/08/27 12:08:53;;;;;;;7.43;4.55;;;23.30;99.90;;;;;;4986381;28;20467;-50
2022/08/27 12:11:36;;;;;;;4.23;3.90;;;23.40;99.90;;;;;;5011023;28;20258;-50
2022/08/27 12:14:16;;;;;;;4.00;3.40;;;23.30;99.90;;;;;;5011156;28;21019;-51
2022/08/27 12:16:52;;;;;;;4.90;3.80;;;23.50;99.90;;;;;;5010906;28;20525;-50
2022/08/27 12:19:29;;;;;;;3.65;3.35;;;23.50;99.90;;;;;;5010032;28;20442;-51
2022/08/27 12:22:16;;;;;;;5.37;4.83;;;23.50;99.90;;;;;;5011173;28;20215;-51
2022/08/27 12:24:52;;;;;;;4.07;3.67;;;23.50;99.90;;;;;;5010897;28;20451;-51
2022/08/27 12:27:40;;;;;;;3.70;3.37;;;23.50;99.90;;;;;;5010024;28;20466;-51
2022/08/27 12:30:22;;;;;;;6.03;4.00;;;23.40;99.90;;;;;;5006203;28;20505;-51
2022/08/27 12:32:51;;;;;;;4.43;4.00;;;23.50;99.90;;;;;;5011040;28;20444;-51
2022/08/27 12:35:21;;;;;;;4.30;3.90;;;23.60;99.90;;;;;;5010046;28;20470;-51
2022/08/27 12:37:52;;;;;;;4.07;3.67;;;23.50;99.90;;;;;;5010276;28;20490;-51
2022/08/27 12:40:23;;;;;;;3.78;3.47;;;23.60;99.90;;;;;;5009808;28;20694;-51
2022/08/27 12:42:51;;;;;;;7.77;5.10;;;23.70;99.90;;;;;;5010954;28;20239;-50
2022/08/27 12:45:22;;;;;;;6.97;4.47;;;23.70;99.90;;;;;;5010416;28;20497;-50
2022/08/27 12:47:50;;;;;;;5.20;3.73;;;23.70;99.90;;;;;;5010140;28;20460;-51
2022/08/27 12:50:23;;;;;;;8.93;3.50;;;23.70;99.90;;;;;;5010134;28;20451;-51
2022/08/27 12:53:11;;;;;;;6.07;3.70;;;23.70;99.90;;;;;;5009336;28;20553;-51
2022/08/27 12:55:49;;;;;;;4.10;3.70;;;23.70;99.90;;;;;;5010490;28;21007;-50
2022/08/27 12:58:24;;;;;;;4.17;3.77;;;23.60;99.90;;;;;;5009842;28;20485;-52
2022/08/27 13:01:21;;;;;;;5.13;4.40;;;23.60;99.90;;;;;;5009579;28;21057;-50
2022/08/27 13:03:49;;;;;;;4.37;3.80;;;23.50;99.90;;;;;;5010020;28;20494;-51
2022/08/27 13:06:20;;;;;;;3.70;3.20;;;23.60;99.90;;;;;;5009183;28;20458;-51
2022/08/27 13:08:47;;;;;;;4.53;4.13;;;23.70;99.90;;;;;;5009758;28;20463;-50